createdAt,value
2018-12-02T00:00:11.318Z,97066.09
2018-12-02T00:02:38.731Z,97060.39
2018-12-02T00:05:06.182Z,97061.50
2018-12-02T00:07:33.580Z,97062.14
2018-12-02T00:10:01.036Z,97065.54
2018-12-02T00:12:28.441Z,97063.70
2018-12-02T00:14:55.849Z,97054.83
2018-12-02T00:17:23.255Z,97051.75
2018-12-02T00:19:50.756Z,97055.97
2018-12-02T00:22:18.165Z,97048.13
2018-12-02T00:24:45.772Z,97054.53
2018-12-02T00:27:13.198Z,97042.07
2018-12-02T00:29:40.633Z,97037.00
2018-12-02T00:32:08.318Z,97045.95
2018-12-02T00:34:35.771Z,97043.05
2018-12-02T00:37:03.546Z,97044.44
2018-12-02T00:39:30.995Z,97042.80
2018-12-02T00:41:58.939Z,97035.75
2018-12-02T00:44:26.408Z,97040.91
2018-12-02T00:46:53.847Z,97033.34
2018-12-02T00:49:21.276Z,97030.54
2018-12-02T00:51:48.671Z,97028.64
2018-12-02T00:54:16.098Z,97032.33
2018-12-02T00:56:43.508Z,97039.50
2018-12-02T00:59:11.033Z,97040.26
2018-12-02T01:01:38.433Z,97043.16
2018-12-02T01:04:05.860Z,97036.47
2018-12-02T01:06:33.327Z,97036.41
2018-12-02T01:09:00.735Z,97030.06
2018-12-02T01:11:28.157Z,97031.13
2018-12-02T01:13:55.544Z,97034.84
2018-12-02T01:16:22.944Z,97035.02
2018-12-02T01:18:50.357Z,97038.16
2018-12-02T01:21:17.832Z,97038.88
2018-12-02T01:23:45.215Z,97053.11
2018-12-02T01:26:12.625Z,97057.55
2018-12-02T01:28:40.102Z,97061.88
2018-12-02T01:31:07.480Z,97063.59
2018-12-02T01:33:35.038Z,97068.59
2018-12-02T01:36:02.469Z,97063.50
2018-12-02T01:38:29.864Z,97061.41
2018-12-02T01:40:57.263Z,97069.95
2018-12-02T01:43:24.670Z,97070.72
2018-12-02T01:45:52.213Z,97070.89
2018-12-02T01:48:19.617Z,97072.15
2018-12-02T01:50:47.093Z,97074.93
2018-12-02T01:53:14.496Z,97070.47
2018-12-02T01:55:42.096Z,97075.84
2018-12-02T01:58:09.773Z,97077.69
2018-12-02T02:00:37.204Z,97071.33
2018-12-02T02:03:05.343Z,97066.16
2018-12-02T02:05:32.817Z,97066.28
2018-12-02T02:08:00.229Z,97063.26
2018-12-02T02:10:27.610Z,97073.00
2018-12-02T02:12:55.077Z,97076.45
2018-12-02T02:15:22.486Z,97076.13
2018-12-02T02:17:49.883Z,97073.59
2018-12-02T02:20:17.290Z,97072.66
2018-12-02T02:22:44.773Z,97066.66
2018-12-02T02:25:12.234Z,97063.97
2018-12-02T02:27:39.639Z,97062.67
2018-12-02T02:30:07.888Z,97062.34
2018-12-02T02:32:35.413Z,97059.44
2018-12-02T02:35:04.524Z,97060.30
2018-12-02T02:37:31.960Z,97058.28
2018-12-02T02:39:59.410Z,97053.90
2018-12-02T02:42:26.855Z,97055.62
2018-12-02T02:44:54.254Z,97051.33
2018-12-02T02:47:21.783Z,97050.89
2018-12-02T02:49:49.200Z,97048.28
2018-12-02T02:52:16.594Z,97056.55
2018-12-02T02:54:44.181Z,97048.52
2018-12-02T02:57:11.572Z,97040.39
2018-12-02T02:59:38.973Z,97037.14
2018-12-02T03:02:06.380Z,97040.94
2018-12-02T03:04:33.770Z,97039.73
2018-12-02T03:07:01.181Z,97043.52
2018-12-02T03:09:28.594Z,97032.38
2018-12-02T03:11:55.999Z,97038.94
2018-12-02T03:14:23.405Z,97045.70
2018-12-02T03:16:50.802Z,97046.88
2018-12-02T03:19:18.193Z,97039.89
2018-12-02T03:21:45.601Z,97032.16
2018-12-02T03:24:13.003Z,97030.53
2018-12-02T03:26:40.411Z,97042.39
2018-12-02T03:29:07.817Z,97044.23
2018-12-02T03:31:35.236Z,97039.02
2018-12-02T03:34:02.628Z,97040.52
2018-12-02T03:36:30.033Z,97031.09
2018-12-02T03:38:57.438Z,97036.61
2018-12-02T03:41:24.854Z,97031.52
2018-12-02T03:43:52.491Z,97029.33
2018-12-02T03:46:19.874Z,97027.48
2018-12-02T03:48:47.332Z,97026.72
2018-12-02T03:51:14.748Z,97028.64
2018-12-02T03:53:42.142Z,97028.34
2018-12-02T03:56:09.556Z,97023.19
2018-12-02T03:58:36.954Z,97021.71
2018-12-02T04:01:04.386Z,97033.38
2018-12-02T04:03:31.774Z,97032.31
2018-12-02T04:05:59.193Z,97026.64
2018-12-02T04:08:26.582Z,97028.72
2018-12-02T04:10:53.992Z,97034.41
2018-12-02T04:13:21.404Z,97029.96
2018-12-02T04:15:48.792Z,97034.70
2018-12-02T04:18:16.273Z,97026.81
2018-12-02T04:20:43.675Z,97013.83
2018-12-02T04:23:11.084Z,97022.00
2018-12-02T04:25:38.518Z,97012.65
2018-12-02T04:28:05.946Z,97003.11
2018-12-02T04:30:33.367Z,97000.93
2018-12-02T04:33:00.751Z,97005.73
2018-12-02T04:35:28.151Z,97003.11
2018-12-02T04:37:55.670Z,96989.90
2018-12-02T04:40:23.136Z,96994.94
2018-12-02T04:42:50.555Z,96989.70
2018-12-02T04:45:18.119Z,96991.73
2018-12-02T04:47:45.592Z,96998.20
2018-12-02T04:50:13.006Z,96997.08
2018-12-02T04:52:40.476Z,96997.47
2018-12-02T04:55:07.873Z,96992.70
2018-12-02T04:57:35.343Z,96991.39
2018-12-02T05:00:02.745Z,97000.38
2018-12-02T05:02:30.133Z,97002.88
2018-12-02T05:04:57.538Z,97009.98
2018-12-02T05:07:24.931Z,97021.19
2018-12-02T05:09:52.345Z,97025.80
2018-12-02T05:12:19.740Z,97020.94
2018-12-02T05:14:47.213Z,97017.27
2018-12-02T05:17:14.692Z,97011.69
2018-12-02T05:19:43.018Z,97011.05
2018-12-02T05:22:10.409Z,97002.28
2018-12-02T05:24:37.833Z,96981.37
2018-12-02T05:27:05.231Z,96964.36
2018-12-02T05:29:32.886Z,96956.28
2018-12-02T05:32:00.286Z,96944.72
2018-12-02T05:34:27.682Z,96931.78
2018-12-02T05:36:55.297Z,96929.91
2018-12-02T05:39:22.689Z,96937.02
2018-12-02T05:41:50.081Z,96949.88
2018-12-02T05:44:17.476Z,96950.59
2018-12-02T05:46:44.875Z,96961.45
2018-12-02T05:49:12.336Z,96951.43
2018-12-02T05:51:39.756Z,96947.00
2018-12-02T05:54:07.176Z,96949.97
2018-12-02T05:56:34.573Z,96965.18
2018-12-02T05:59:02.351Z,96982.08
2018-12-02T06:01:29.786Z,96989.30
2018-12-02T06:03:57.359Z,97009.98
2018-12-02T06:06:24.752Z,97009.09
2018-12-02T06:08:52.282Z,97016.20
2018-12-02T06:11:19.731Z,97012.41
2018-12-02T06:13:47.156Z,97008.98
2018-12-02T06:16:14.571Z,97009.93
2018-12-02T06:18:41.996Z,97014.06
2018-12-02T06:21:09.469Z,97020.36
2018-12-02T06:23:36.847Z,97023.66
2018-12-02T06:26:04.257Z,97025.69
2018-12-02T06:28:31.651Z,97032.50
2018-12-02T06:30:59.095Z,97034.94
2018-12-02T06:33:26.518Z,97023.30
2018-12-02T06:35:53.942Z,97012.65
2018-12-02T06:38:21.544Z,97006.08
2018-12-02T06:40:48.930Z,96991.80
2018-12-02T06:43:16.349Z,96987.98
2018-12-02T06:45:43.744Z,96991.19
2018-12-02T06:48:11.185Z,97001.38
2018-12-02T06:50:38.614Z,96991.47
2018-12-02T06:53:06.001Z,96991.17
2018-12-02T06:55:34.431Z,96988.56
2018-12-02T06:58:03.889Z,96983.98
2018-12-02T07:00:32.832Z,96980.66
2018-12-02T07:03:00.975Z,96972.52
2018-12-02T07:05:29.358Z,96976.74
2018-12-02T07:07:57.384Z,96980.34
2018-12-02T07:10:24.795Z,96977.37
2018-12-02T07:12:52.215Z,96974.71
2018-12-02T07:15:19.623Z,96977.09
2018-12-02T07:17:48.048Z,96983.89
2018-12-02T07:20:17.353Z,96988.22
2018-12-02T07:22:45.725Z,96988.32
2018-12-02T07:25:17.855Z,96992.48
2018-12-02T07:27:45.269Z,96988.52
2018-12-02T07:30:12.668Z,96983.47
2018-12-02T07:32:40.067Z,96993.30
2018-12-02T07:35:07.465Z,96984.60
2018-12-02T07:37:34.892Z,96985.69
2018-12-02T07:40:02.304Z,96971.66
2018-12-02T07:42:29.775Z,96971.50
2018-12-02T07:44:57.199Z,96972.33
2018-12-02T07:47:24.585Z,96971.81
2018-12-02T07:49:52.041Z,96987.98
2018-12-02T07:52:19.435Z,96980.48
2018-12-02T07:54:46.846Z,96969.58
2018-12-02T07:57:14.244Z,96979.94
2018-12-02T07:59:41.670Z,96982.55
2018-12-02T08:02:09.109Z,96985.19
2018-12-02T08:04:37.518Z,96982.70
2018-12-02T08:07:05.041Z,96976.19
2018-12-02T08:09:32.828Z,96974.32
2018-12-02T08:12:00.305Z,96977.33
2018-12-02T08:14:27.735Z,96974.46
2018-12-02T08:16:55.218Z,96971.45
2018-12-02T08:19:22.688Z,96972.84
2018-12-02T08:21:50.111Z,96980.26
2018-12-02T08:24:17.543Z,96977.02
2018-12-02T08:26:44.955Z,96969.48
2018-12-02T08:29:12.414Z,96970.83
2018-12-02T08:31:39.868Z,96974.03
2018-12-02T08:34:07.276Z,96977.93
2018-12-02T08:36:34.692Z,96977.84
2018-12-02T08:39:02.119Z,96980.38
2018-12-02T08:41:30.197Z,97002.88
2018-12-02T08:43:57.596Z,97007.16
2018-12-02T08:46:25.115Z,97008.89
2018-12-02T08:48:53.274Z,97014.50
2018-12-02T08:51:20.222Z,97016.15
2018-12-02T08:53:47.613Z,97003.33
2018-12-02T08:56:15.015Z,96993.16
2018-12-02T08:58:42.436Z,96990.85
2018-12-02T09:01:10.190Z,97008.25
2018-12-02T09:03:37.650Z,97025.23
2018-12-02T09:06:05.880Z,97035.93
2018-12-02T09:08:33.703Z,97018.39
2018-12-02T09:11:01.113Z,97009.06
2018-12-02T09:13:28.669Z,97003.81
2018-12-02T09:15:56.235Z,96989.69
2018-12-02T09:18:23.875Z,97007.39
2018-12-02T09:20:51.432Z,97010.52
2018-12-02T09:23:18.972Z,97013.22
2018-12-02T09:25:46.416Z,97032.30
2018-12-02T09:28:13.829Z,97033.22
2018-12-02T09:30:41.220Z,97035.17
2018-12-02T09:33:08.628Z,97033.50
2018-12-02T09:35:36.085Z,97036.11
2018-12-02T09:38:03.627Z,97023.64
2018-12-02T09:40:31.053Z,97028.03
2018-12-02T09:42:58.453Z,97030.78
2018-12-02T09:45:25.915Z,97029.70
2018-12-02T09:47:53.411Z,97037.05
2018-12-02T09:50:20.816Z,97018.84
2018-12-02T09:52:49.217Z,97013.54
2018-12-02T09:55:16.737Z,97032.40
2018-12-02T09:57:44.158Z,97029.63
2018-12-02T10:00:11.577Z,97033.55
2018-12-02T10:02:38.963Z,97026.83
2018-12-02T10:05:06.462Z,97032.19
2018-12-02T10:07:33.898Z,97031.36
2018-12-02T10:10:01.373Z,97023.47
2018-12-02T10:12:30.025Z,97037.05
2018-12-02T10:14:57.432Z,97040.79
2018-12-02T10:17:24.842Z,97040.36
2018-12-02T10:19:53.306Z,97029.71
2018-12-02T10:22:20.710Z,97019.91
2018-12-02T10:24:48.111Z,97008.78
2018-12-02T10:27:15.574Z,97013.82
2018-12-02T10:29:43.081Z,97011.83
2018-12-02T10:32:12.462Z,96992.53
2018-12-02T10:34:38.961Z,96980.23
2018-12-02T10:37:06.391Z,96982.23
2018-12-02T10:39:33.777Z,96998.27
2018-12-02T10:42:01.244Z,97004.41
2018-12-02T10:44:28.786Z,97005.85
2018-12-02T10:46:56.188Z,97009.12
2018-12-02T10:49:23.701Z,96992.36
2018-12-02T10:51:51.102Z,97006.75
2018-12-02T10:54:18.522Z,96998.97
2018-12-02T10:56:45.936Z,96993.83
2018-12-02T10:59:14.100Z,96990.65
2018-12-02T11:01:41.506Z,96990.31
2018-12-02T11:04:08.912Z,96986.42
2018-12-02T11:06:37.815Z,96988.79
2018-12-02T11:09:06.163Z,96992.77
2018-12-02T11:11:33.795Z,96984.03
2018-12-02T11:14:02.137Z,96978.24
2018-12-02T11:16:29.548Z,97010.39
2018-12-02T11:18:57.014Z,97001.40
2018-12-02T11:21:25.391Z,96982.25
2018-12-02T11:23:52.790Z,96984.37
2018-12-02T11:26:20.201Z,96977.23
2018-12-02T11:28:47.644Z,96976.80
2018-12-02T11:31:15.052Z,96972.48
2018-12-02T11:33:42.547Z,96973.08
2018-12-02T11:36:09.959Z,96965.55
2018-12-02T11:38:37.767Z,96964.73
2018-12-02T11:41:05.187Z,96969.07
2018-12-02T11:43:32.683Z,96960.18
2018-12-02T11:46:00.130Z,96956.09
2018-12-02T11:48:27.537Z,96967.41
2018-12-02T11:50:55.046Z,96961.55
2018-12-02T11:53:22.456Z,96960.98
2018-12-02T11:55:50.167Z,96962.03
2018-12-02T11:58:17.578Z,96959.66
2018-12-02T12:00:44.996Z,96952.34
2018-12-02T12:03:12.838Z,96947.25
2018-12-02T12:05:40.292Z,96948.89
2018-12-02T12:08:09.487Z,96947.45
2018-12-02T12:10:37.173Z,96945.00
2018-12-02T12:13:04.569Z,96938.36
2018-12-02T12:15:32.808Z,96939.17
2018-12-02T12:18:00.372Z,96929.02
2018-12-02T12:20:27.817Z,96944.89
2018-12-02T12:22:55.240Z,96941.73
2018-12-02T12:25:22.733Z,96937.57
2018-12-02T12:27:50.155Z,96943.97
2018-12-02T12:30:17.568Z,96934.56
2018-12-02T12:32:44.972Z,96935.16
2018-12-02T12:35:12.388Z,96938.49
2018-12-02T12:37:40.041Z,96938.44
2018-12-02T12:40:07.473Z,96925.48
2018-12-02T12:42:34.869Z,96948.09
2018-12-02T12:45:02.376Z,96945.38
2018-12-02T12:47:29.779Z,96949.58
2018-12-02T12:49:57.323Z,96938.55
2018-12-02T12:52:24.795Z,96922.13
2018-12-02T12:54:52.463Z,96924.56
2018-12-02T12:57:20.336Z,96931.70
2018-12-02T12:59:47.877Z,96928.31
2018-12-02T13:02:15.485Z,96923.25
2018-12-02T13:04:42.916Z,96913.69
2018-12-02T13:07:10.345Z,96913.36
2018-12-02T13:09:37.795Z,96915.59
2018-12-02T13:12:05.509Z,96920.83
2018-12-02T13:14:32.968Z,96912.58
2018-12-02T13:17:00.376Z,96903.80
2018-12-02T13:19:27.785Z,96902.31
2018-12-02T13:21:57.860Z,96911.42
2018-12-02T13:24:25.485Z,96909.13
2018-12-02T13:26:52.896Z,96901.95
2018-12-02T13:29:20.564Z,96898.89
2018-12-02T13:31:50.443Z,96901.30
2018-12-02T13:34:17.932Z,96911.19
2018-12-02T13:36:45.338Z,96917.11
2018-12-02T13:39:12.745Z,96921.10
2018-12-02T13:41:40.160Z,96910.83
2018-12-02T13:44:07.769Z,96901.28
2018-12-02T13:46:35.184Z,96914.08
2018-12-02T13:49:02.739Z,96909.67
2018-12-02T13:51:30.137Z,96906.48
2018-12-02T13:53:57.556Z,96915.59
2018-12-02T13:56:25.048Z,96919.86
2018-12-02T13:58:52.836Z,96914.87
2018-12-02T14:01:20.244Z,96911.12
2018-12-02T14:03:47.688Z,96901.91
2018-12-02T14:06:15.231Z,96909.83
2018-12-02T14:08:43.039Z,96917.59
2018-12-02T14:11:10.593Z,96922.70
2018-12-02T14:13:38.128Z,96926.41
2018-12-02T14:16:05.533Z,96913.61
2018-12-02T14:18:32.950Z,96906.04
2018-12-02T14:21:00.420Z,96899.97
2018-12-02T14:23:27.845Z,96902.65
2018-12-02T14:25:55.257Z,96908.22
2018-12-02T14:28:24.082Z,96904.07
2018-12-02T14:30:53.318Z,96899.53
2018-12-02T14:33:20.766Z,96892.00
2018-12-02T14:35:48.247Z,96895.91
2018-12-02T14:38:16.826Z,96908.59
2018-12-02T14:40:44.238Z,96907.51
2018-12-02T14:43:11.653Z,96919.03
2018-12-02T14:45:39.088Z,96920.86
2018-12-02T14:48:06.505Z,96914.13
2018-12-02T14:50:33.963Z,96916.33
2018-12-02T14:53:01.437Z,96916.27
2018-12-02T14:55:28.917Z,96909.17
2018-12-02T14:57:56.800Z,96910.79
2018-12-02T15:00:24.202Z,96920.14
2018-12-02T15:02:51.603Z,96918.42
2018-12-02T15:05:20.383Z,96939.00
2018-12-02T15:07:47.140Z,96932.48
2018-12-02T15:10:14.634Z,96926.64
2018-12-02T15:12:42.047Z,96926.41
2018-12-02T15:15:09.504Z,96927.51
2018-12-02T15:17:36.944Z,96933.34
2018-12-02T15:20:04.344Z,96935.07
2018-12-02T15:22:31.805Z,96935.28
2018-12-02T15:24:59.337Z,96934.36
2018-12-02T15:27:26.910Z,96941.30
2018-12-02T15:29:54.338Z,96937.59
2018-12-02T15:32:21.762Z,96930.04
2018-12-02T15:34:49.216Z,96929.56
2018-12-02T15:37:16.636Z,96931.38
2018-12-02T15:39:47.781Z,96940.75
2018-12-02T15:42:15.215Z,96936.84
2018-12-02T15:44:43.247Z,96941.52
2018-12-02T15:47:10.834Z,96938.63
2018-12-02T15:49:38.275Z,96928.72
2018-12-02T15:52:05.688Z,96937.03
2018-12-02T15:54:33.824Z,96946.47
2018-12-02T15:57:01.279Z,96939.41
2018-12-02T15:59:28.680Z,96935.36
2018-12-02T16:01:57.193Z,96933.14
2018-12-02T16:04:24.671Z,96940.07
2018-12-02T16:06:52.173Z,96938.05
2018-12-02T16:09:19.632Z,96929.71
2018-12-02T16:11:47.045Z,96934.17
2018-12-02T16:14:14.487Z,96921.41
2018-12-02T16:16:41.929Z,96914.65
2018-12-02T16:19:09.332Z,96915.78
2018-12-02T16:21:36.805Z,96917.27
2018-12-02T16:24:04.351Z,96919.73
2018-12-02T16:26:31.798Z,96930.58
2018-12-02T16:28:59.294Z,96918.84
2018-12-02T16:31:26.804Z,96917.09
2018-12-02T16:33:54.377Z,96918.23
2018-12-02T16:36:22.041Z,96927.28
2018-12-02T16:38:49.533Z,96926.91
2018-12-02T16:41:17.130Z,96930.66
2018-12-02T16:43:44.817Z,96925.57
2018-12-02T16:46:13.159Z,96922.19
2018-12-02T16:48:40.759Z,96930.03
2018-12-02T16:51:08.173Z,96931.27
2018-12-02T16:53:35.862Z,96928.65
2018-12-02T16:56:03.319Z,96925.72
2018-12-02T16:58:30.917Z,96922.41
2018-12-02T17:00:58.360Z,96926.02
2018-12-02T17:03:26.613Z,96934.63
2018-12-02T17:05:54.076Z,96928.56
2018-12-02T17:08:21.533Z,96944.08
2018-12-02T17:10:50.392Z,96940.98
2018-12-02T17:13:16.621Z,96934.98
2018-12-02T17:15:44.517Z,96941.17
2018-12-02T17:18:11.984Z,96932.67
2018-12-02T17:20:39.788Z,96929.69
2018-12-02T17:23:07.194Z,96933.66
2018-12-02T17:25:34.639Z,96930.52
2018-12-02T17:28:02.109Z,96932.45
2018-12-02T17:30:29.550Z,96936.95
2018-12-02T17:32:56.947Z,96942.89
2018-12-02T17:35:24.517Z,96946.17
2018-12-02T17:37:51.926Z,96954.78
2018-12-02T17:40:19.339Z,96950.52
2018-12-02T17:42:46.740Z,96961.97
2018-12-02T17:45:14.179Z,96971.29
2018-12-02T17:47:41.662Z,96979.72
2018-12-02T17:50:09.422Z,96968.97
2018-12-02T17:52:36.887Z,96976.51
2018-12-02T17:55:04.418Z,96970.78
2018-12-02T17:57:31.906Z,96966.61
2018-12-02T18:00:00.150Z,96963.36
2018-12-02T18:02:27.632Z,96963.45
2018-12-02T18:04:55.055Z,96958.69
2018-12-02T18:07:22.580Z,96956.55
2018-12-02T18:09:50.146Z,96962.41
2018-12-02T18:12:18.052Z,96963.95
2018-12-02T18:14:45.505Z,96966.21
2018-12-02T18:17:12.899Z,96962.28
2018-12-02T18:19:40.429Z,96966.36
2018-12-02T18:22:08.079Z,96970.36
2018-12-02T18:24:36.831Z,96967.70
2018-12-02T18:27:04.369Z,96967.89
2018-12-02T18:29:31.885Z,96956.47
2018-12-02T18:31:59.470Z,96945.34
2018-12-02T18:34:26.936Z,96942.74
2018-12-02T18:36:54.444Z,96948.03
2018-12-02T18:39:21.870Z,96947.41
2018-12-02T18:41:49.588Z,96932.05
2018-12-02T18:44:17.060Z,96935.92
2018-12-02T18:46:44.441Z,96935.70
2018-12-02T18:49:11.975Z,96938.23
2018-12-02T18:51:39.834Z,96935.30
2018-12-02T18:54:07.327Z,96926.47
2018-12-02T18:56:34.903Z,96923.44
2018-12-02T18:59:02.641Z,96934.87
2018-12-02T19:01:30.051Z,96932.67
2018-12-02T19:03:57.947Z,96938.36
2018-12-02T19:06:28.239Z,96946.11
2018-12-02T19:08:53.012Z,96955.75
2018-12-02T19:11:21.587Z,96957.91
2018-12-02T19:13:48.045Z,96960.17
2018-12-02T19:16:15.493Z,96969.78
2018-12-02T19:18:43.464Z,96971.05
2018-12-02T19:21:10.879Z,96953.42
2018-12-02T19:23:38.877Z,96948.41
2018-12-02T19:26:06.477Z,96945.52
2018-12-02T19:28:33.951Z,96935.44
2018-12-02T19:31:01.400Z,96931.63
2018-12-02T19:33:29.819Z,96932.94
2018-12-02T19:35:57.725Z,96927.77
2018-12-02T19:38:25.134Z,96919.89
2018-12-02T19:40:52.571Z,96932.41
2018-12-02T19:43:20.976Z,96944.95
2018-12-02T19:45:49.880Z,96939.28
2018-12-02T19:48:17.351Z,96939.45
2018-12-02T19:50:44.753Z,96933.81
2018-12-02T19:53:12.231Z,96933.56
2018-12-02T19:55:39.972Z,96937.39
2018-12-02T19:58:07.759Z,96925.30
2018-12-02T20:00:35.159Z,96937.60
2018-12-02T20:03:02.634Z,96932.88
2018-12-02T20:05:30.064Z,96938.08
2018-12-02T20:07:57.513Z,96949.58
2018-12-02T20:10:24.938Z,96949.05
2018-12-02T20:12:52.607Z,96945.58
2018-12-02T20:15:20.081Z,96950.56
2018-12-02T20:17:47.494Z,96947.23
2018-12-02T20:20:20.556Z,96942.25
2018-12-02T20:22:48.085Z,96938.13
2018-12-02T20:25:15.533Z,96939.66
2018-12-02T20:27:43.181Z,96946.41
2018-12-02T20:30:10.991Z,96948.15
2018-12-02T20:32:38.425Z,96952.63
2018-12-02T20:35:06.024Z,96955.08
2018-12-02T20:37:33.577Z,96952.97
2018-12-02T20:40:01.005Z,96957.31
2018-12-02T20:42:28.541Z,96964.41
2018-12-02T20:44:55.953Z,96962.63
2018-12-02T20:47:24.265Z,96962.89
2018-12-02T20:49:51.700Z,96966.60
2018-12-02T20:52:19.505Z,96969.52
2018-12-02T20:54:47.111Z,96967.08
2018-12-02T20:57:14.518Z,96962.64
2018-12-02T20:59:41.974Z,96961.59
2018-12-02T21:02:11.134Z,96954.33
2018-12-02T21:04:38.671Z,96960.58
2018-12-02T21:07:06.093Z,96939.82
2018-12-02T21:09:33.885Z,96939.06
2018-12-02T21:12:01.351Z,96942.74
2018-12-02T21:14:28.750Z,96940.05
2018-12-02T21:16:56.375Z,96926.36
2018-12-02T21:19:23.774Z,96921.59
2018-12-02T21:21:51.722Z,96926.68
2018-12-02T21:24:19.138Z,96917.78
2018-12-02T21:26:47.003Z,96915.39
2018-12-02T21:29:14.421Z,96916.31
2018-12-02T21:31:41.875Z,96913.18
2018-12-02T21:34:10.144Z,96910.27
2018-12-02T21:36:37.811Z,96904.16
2018-12-02T21:39:05.469Z,96913.44
2018-12-02T21:41:33.123Z,96918.05
2018-12-02T21:44:00.643Z,96914.01
2018-12-02T21:46:28.135Z,96918.69
2018-12-02T21:48:55.555Z,96916.47
2018-12-02T21:51:22.991Z,96922.68
2018-12-02T21:53:50.399Z,96919.26
2018-12-02T21:56:17.818Z,96925.41
2018-12-02T21:58:45.223Z,96923.48
2018-12-02T22:01:12.773Z,96914.77
2018-12-02T22:03:40.171Z,96925.13
2018-12-02T22:06:07.828Z,96927.53
2018-12-02T22:08:35.231Z,96939.52
2018-12-02T22:11:02.633Z,96948.12
2018-12-02T22:13:30.110Z,96951.80
2018-12-02T22:15:57.502Z,96951.33
2018-12-02T22:18:24.956Z,96946.72
2018-12-02T22:20:52.389Z,96950.53
2018-12-02T22:23:19.883Z,96944.13
2018-12-02T22:25:47.839Z,96949.25
2018-12-02T22:28:15.275Z,96959.66
2018-12-02T22:30:43.372Z,96962.95
2018-12-02T22:33:10.759Z,96956.39
2018-12-02T22:35:38.201Z,96950.02
2018-12-02T22:38:05.628Z,96951.23
2018-12-02T22:40:33.025Z,96941.14
2018-12-02T22:43:00.699Z,96941.78
2018-12-02T22:45:28.211Z,96955.84
2018-12-02T22:47:55.641Z,96950.42
2018-12-02T22:50:23.092Z,96949.66
2018-12-02T22:52:50.494Z,96946.80
2018-12-02T22:55:17.941Z,96938.58
2018-12-02T22:57:45.402Z,96946.33
2018-12-02T23:00:12.788Z,96941.78
2018-12-02T23:02:40.231Z,96944.92
2018-12-02T23:05:07.646Z,96947.93
2018-12-02T23:07:35.083Z,96945.56
2018-12-02T23:10:02.506Z,96953.12
2018-12-02T23:12:29.903Z,96954.08
2018-12-02T23:14:57.315Z,96945.72
2018-12-02T23:17:24.731Z,96942.27
2018-12-02T23:19:52.128Z,96946.46
2018-12-02T23:22:19.543Z,96933.27
2018-12-02T23:24:46.996Z,96927.60
2018-12-02T23:27:14.403Z,96918.09
2018-12-02T23:29:41.833Z,96908.17
2018-12-02T23:32:09.239Z,96911.08
2018-12-02T23:34:37.396Z,96880.91
2018-12-02T23:37:04.840Z,96870.17
2018-12-02T23:39:32.242Z,96884.94
2018-12-02T23:41:59.641Z,96888.30
2018-12-02T23:44:27.036Z,96900.30
2018-12-02T23:46:54.440Z,96886.72
2018-12-02T23:49:21.867Z,96884.50
2018-12-02T23:51:49.268Z,96885.75
2018-12-02T23:54:16.801Z,96883.06
2018-12-02T23:56:44.375Z,96887.38
2018-12-02T23:59:11.795Z,96881.65
